Gold Point, Nevada
Current Conditions -  °F | °C
As of 9:56 AM on Sunday 25 Jan 2015 (Local Time) from KTPH Reporting Station
Clear Clear  
Wind Chill: 50°   Ceiling: Unl
Heat Index: 50°   Visibility: 10mi
Dew Point: 29°   Wind: 8mph
Humidity: 44%   Direction: 10°N
Pressure: 30.42"   Gusts: NA
Location:  37.7558°N, 117.435°W
Report Text: KTPH 251756Z AUTO 01007KT 10SM CLR 10/M02 A3042 RMK AO2 SLP285 T01001017 10100 21022 50005
Loading
Personal Weather Stations






























Interactive Weather Map New forecast layout! Learn more

10-Day Weather Forecast

Advertisements
Track Severe Weather on mobile